Time;durP1;ratioP1;P1;durP2;ratioP2;P2;SDS_P1;SDS_P2;PMS_P1;PMS_P2;Temp;Humidity;BMP_temperature;BMP_pressure;BME280_temperature;BME280_humidity;BME280_pressure;Samples;Min_cycle;Max_cycle;Signal;HPM_P1;HPM_P2
2021/03/19 00:01:31;;;;;;;25.08;14.32;;;;;;;;;;5092452;28;20020;-73
2021/03/19 00:03:57;;;;;;;19.95;12.52;;;;;;;;;;5092667;28;20473;-72
2021/03/19 00:06:24;;;;;;;21.02;12.38;;;;;;;;;;5092524;28;20024;-72
2021/03/19 00:08:50;;;;;;;15.77;10.63;;;;;;;;;;5092188;28;20024;-73
2021/03/19 00:11:17;;;;;;;19.40;10.70;;;;;;;;;;5092385;28;20028;-73
2021/03/19 00:13:43;;;;;;;18.02;11.27;;;;;;;;;;5092357;28;20046;-74
2021/03/19 00:16:09;;;;;;;19.42;11.43;;;;;;;;;;5092312;28;20024;-73
2021/03/19 00:18:36;;;;;;;17.67;10.80;;;;;;;;;;5092434;28;20032;-73
2021/03/19 00:21:03;;;;;;;18.33;10.93;;;;;;;;;;5091229;28;20024;-73
2021/03/19 00:23:29;;;;;;;21.27;12.27;;;;;;;;;;5090683;28;20392;-72
2021/03/19 00:25:56;;;;;;;15.68;10.05;;;;;;;;;;5092344;28;20042;-73
2021/03/19 00:28:22;;;;;;;16.85;10.18;;;;;;;;;;5092321;28;20496;-72
2021/03/19 00:30:48;;;;;;;22.77;12.18;;;;;;;;;;5091815;28;20096;-73
2021/03/19 00:33:15;;;;;;;19.60;11.68;;;;;;;;;;5090971;28;20550;-72
2021/03/19 00:35:42;;;;;;;20.10;10.70;;;;;;;;;;5095310;28;20024;-73
2021/03/19 00:38:09;;;;;;;23.73;12.18;;;;;;;;;;5096236;28;20051;-72
2021/03/19 00:40:35;;;;;;;17.00;9.60;;;;;;;;;;5096354;28;20507;-73
2021/03/19 00:43:08;;;;;;;15.63;9.23;;;;;;;;;;5095934;28;20024;-72
2021/03/19 00:45:35;;;;;;;18.70;9.82;;;;;;;;;;5096384;28;20016;-72
2021/03/19 00:48:01;;;;;;;13.98;8.40;;;;;;;;;;5096377;28;20024;-72
2021/03/19 00:50:29;;;;;;;16.63;8.85;;;;;;;;;;5095848;28;20472;-72
2021/03/19 00:52:56;;;;;;;14.77;8.45;;;;;;;;;;5096370;28;20040;-72
2021/03/19 00:55:22;;;;;;;16.13;9.32;;;;;;;;;;5096228;28;20053;-73
2021/03/19 00:57:49;;;;;;;16.60;9.30;;;;;;;;;;5095768;28;20283;-72
2021/03/19 01:00:18;;;;;;;14.57;8.50;;;;;;;;;;5094696;28;20388;-72
2021/03/19 01:02:44;;;;;;;16.13;8.70;;;;;;;;;;5095864;28;20024;-73
2021/03/19 01:05:14;;;;;;;15.25;9.25;;;;;;;;;;5094278;28;20380;-73
2021/03/19 01:07:40;;;;;;;14.60;8.35;;;;;;;;;;5095871;28;20027;-72
2021/03/19 01:10:08;;;;;;;15.20;9.02;;;;;;;;;;5095857;28;20488;-73
2021/03/19 01:12:34;;;;;;;18.10;7.93;;;;;;;;;;5095226;28;20040;-72
2021/03/19 01:15:00;;;;;;;15.23;8.05;;;;;;;;;;5094692;28;20108;-72
2021/03/19 01:17:26;;;;;;;15.68;8.07;;;;;;;;;;5095742;28;20024;-72
2021/03/19 01:19:52;;;;;;;13.68;8.77;;;;;;;;;;5094061;28;20031;-72
2021/03/19 01:22:18;;;;;;;16.20;8.93;;;;;;;;;;5094353;28;20024;-72
2021/03/19 01:24:45;;;;;;;16.50;9.13;;;;;;;;;;5095522;28;20024;-72
2021/03/19 01:27:11;;;;;;;14.15;8.75;;;;;;;;;;5095300;28;20043;-73
2021/03/19 01:29:37;;;;;;;18.85;10.25;;;;;;;;;;5095480;28;20020;-72
2021/03/19 01:32:04;;;;;;;14.13;8.35;;;;;;;;;;5095282;28;20464;-73
2021/03/19 01:34:30;;;;;;;16.58;9.80;;;;;;;;;;5094024;28;20043;-73
2021/03/19 01:36:56;;;;;;;16.20;9.00;;;;;;;;;;5095471;28;20028;-72
2021/03/19 01:39:22;;;;;;;17.88;10.13;;;;;;;;;;5094917;28;20028;-72
2021/03/19 01:41:49;;;;;;;20.48;10.70;;;;;;;;;;5093901;28;20024;-73
2021/03/19 01:44:34;;;;;;;16.52;10.13;;;;;;;;;;5093451;28;20035;-73
2021/03/19 01:47:19;;;;;;;18.42;10.18;;;;;;;;;;5094716;28;20020;-72
2021/03/19 01:50:04;;;;;;;19.63;11.07;;;;;;;;;;5095005;28;20028;-72
2021/03/19 01:52:48;;;;;;;17.70;10.52;;;;;;;;;;5094927;28;20107;-72
2021/03/19 01:55:33;;;;;;;22.02;10.10;;;;;;;;;;5094800;28;20078;-73
2021/03/19 01:58:18;;;;;;;20.30;10.05;;;;;;;;;;5093748;28;20024;-72
2021/03/19 02:01:03;;;;;;;15.70;10.23;;;;;;;;;;5093145;28;20052;-73
2021/03/19 02:03:48;;;;;;;17.15;10.25;;;;;;;;;;5094749;28;20476;-72
2021/03/19 02:06:32;;;;;;;18.25;10.68;;;;;;;;;;5094777;28;20031;-72
2021/03/19 02:09:17;;;;;;;15.45;9.18;;;;;;;;;;5092949;28;20020;-72
2021/03/19 02:12:01;;;;;;;16.63;8.93;;;;;;;;;;5094405;28;20020;-72
2021/03/19 02:14:46;;;;;;;17.25;10.02;;;;;;;;;;5094291;28;20397;-72
2021/03/19 02:17:31;;;;;;;12.82;8.13;;;;;;;;;;5094830;28;20054;-72
2021/03/19 02:20:16;;;;;;;15.63;8.85;;;;;;;;;;5093155;28;20476;-72
2021/03/19 02:23:01;;;;;;;14.60;8.32;;;;;;;;;;5092771;28;20024;-72
2021/03/19 02:25:45;;;;;;;16.90;8.57;;;;;;;;;;5094601;28;20456;-72
2021/03/19 02:28:30;;;;;;;12.90;7.97;;;;;;;;;;5094419;28;20024;-72
2021/03/19 02:31:12;;;;;;;16.88;9.52;;;;;;;;;;5093163;28;20024;-72
2021/03/19 02:33:58;;;;;;;14.73;8.15;;;;;;;;;;5092737;28;20036;-73
2021/03/19 02:36:26;;;;;;;13.32;7.88;;;;;;;;;;5093963;28;20042;-73
2021/03/19 02:38:52;;;;;;;12.98;8.52;;;;;;;;;;5094177;28;20448;-72
2021/03/19 02:41:19;;;;;;;17.10;9.45;;;;;;;;;;5092659;28;20020;-72
2021/03/19 02:43:45;;;;;;;13.45;8.18;;;;;;;;;;5093702;28;20020;-71
2021/03/19 02:46:11;;;;;;;14.25;8.88;;;;;;;;;;5094052;28;20099;-71
2021/03/19 02:48:38;;;;;;;15.52;8.02;;;;;;;;;;5093814;28;20105;-71
2021/03/19 02:51:06;;;;;;;16.92;9.77;;;;;;;;;;5093559;28;20530;-72
2021/03/19 02:53:33;;;;;;;14.23;8.38;;;;;;;;;;5093997;28;20173;-72
2021/03/19 02:56:00;;;;;;;15.57;9.32;;;;;;;;;;5092191;28;20031;-72
2021/03/19 02:58:27;;;;;;;14.82;8.20;;;;;;;;;;5093005;28;20531;-72
2021/03/19 03:00:53;;;;;;;14.45;8.52;;;;;;;;;;5092493;28;20024;-72
2021/03/19 03:03:20;;;;;;;14.75;9.43;;;;;;;;;;5093643;28;20034;-72
2021/03/19 03:05:46;;;;;;;15.35;9.10;;;;;;;;;;5093129;28;20452;-72
2021/03/19 03:08:14;;;;;;;15.07;9.55;;;;;;;;;;5092149;28;20039;-72
2021/03/19 03:10:40;;;;;;;15.00;8.55;;;;;;;;;;5093439;28;20345;-72
2021/03/19 03:13:07;;;;;;;17.83;9.82;;;;;;;;;;5092842;28;20044;-72
2021/03/19 03:15:34;;;;;;;17.27;9.93;;;;;;;;;;5093560;28;20372;-72
2021/03/19 03:18:00;;;;;;;15.85;9.60;;;;;;;;;;5093204;28;20017;-72
2021/03/19 03:20:30;;;;;;;18.35;11.35;;;;;;;;;;5093290;28;20020;-72
2021/03/19 03:22:57;;;;;;;16.52;9.27;;;;;;;;;;5093295;28;20055;-72
2021/03/19 03:25:24;;;;;;;15.57;9.55;;;;;;;;;;5092835;28;20081;-72
2021/03/19 03:27:51;;;;;;;18.00;9.70;;;;;;;;;;5093125;28;20024;-72
2021/03/19 03:30:19;;;;;;;17.98;9.50;;;;;;;;;;5093034;28;20024;-72
2021/03/19 03:32:46;;;;;;;15.73;9.00;;;;;;;;;;5092587;28;20437;-72
2021/03/19 03:35:12;;;;;;;15.32;9.25;;;;;;;;;;5091801;28;20491;-73
2021/03/19 03:37:38;;;;;;;15.48;9.52;;;;;;;;;;5091934;28;20028;-72
2021/03/19 03:40:09;;;;;;;15.77;9.07;;;;;;;;;;5092588;28;20518;-73
2021/03/19 03:42:36;;;;;;;16.60;9.82;;;;;;;;;;5091557;28;20031;-73
2021/03/19 03:45:02;;;;;;;16.30;10.13;;;;;;;;;;5093044;28;20149;-72
2021/03/19 03:47:28;;;;;;;16.40;8.82;;;;;;;;;;5092470;28;20027;-72
2021/03/19 03:49:55;;;;;;;15.27;9.15;;;;;;;;;;5092878;28;20027;-72
2021/03/19 03:52:21;;;;;;;14.98;8.35;;;;;;;;;;5092764;28;20020;-73
2021/03/19 03:54:47;;;;;;;18.08;10.10;;;;;;;;;;5092373;28;20388;-73
2021/03/19 03:57:13;;;;;;;16.63;9.45;;;;;;;;;;5092863;28;20034;-72
2021/03/19 03:59:39;;;;;;;16.65;9.80;;;;;;;;;;5092697;28;20078;-73
2021/03/19 04:02:18;;;;;;;15.82;9.27;;;;;;;;;;5091163;28;20111;-72
2021/03/19 04:04:46;;;;;;;19.23;10.50;;;;;;;;;;5092679;28;20024;-72
2021/03/19 04:07:12;;;;;;;16.52;10.00;;;;;;;;;;5092143;28;20038;-72
2021/03/19 04:09:38;;;;;;;15.25;9.50;;;;;;;;;;5091212;28;20031;-72
2021/03/19 04:12:05;;;;;;;18.88;10.63;;;;;;;;;;5092178;28;20044;-73
2021/03/19 04:14:31;;;;;;;18.75;10.23;;;;;;;;;;5092168;28;20020;-72
2021/03/19 04:16:58;;;;;;;16.48;9.18;;;;;;;;;;5092718;28;20016;-72
2021/03/19 04:19:25;;;;;;;16.13;10.10;;;;;;;;;;5092596;28;20043;-72
2021/03/19 04:21:52;;;;;;;18.35;10.15;;;;;;;;;;5092078;28;20016;-72
2021/03/19 04:24:18;;;;;;;18.00;9.48;;;;;;;;;;5092472;28;20031;-72
2021/03/19 04:26:44;;;;;;;18.08;9.50;;;;;;;;;;5092482;28;20028;-72
2021/03/19 04:29:10;;;;;;;20.80;11.18;;;;;;;;;;5091972;28;20020;-72
2021/03/19 04:31:36;;;;;;;18.67;10.95;;;;;;;;;;5092350;28;20385;-72
2021/03/19 04:34:03;;;;;;;18.20;10.43;;;;;;;;;;5092251;28;20082;-72
2021/03/19 04:36:30;;;;;;;22.38;10.50;;;;;;;;;;5092085;28;20528;-72
2021/03/19 04:38:59;;;;;;;22.90;12.00;;;;;;;;;;5092338;28;20047;-72
2021/03/19 04:41:25;;;;;;;20.77;10.95;;;;;;;;;;5092321;28;20021;-73
2021/03/19 04:43:52;;;;;;;16.25;8.93;;;;;;;;;;5091866;28;20028;-73
2021/03/19 04:46:18;;;;;;;19.35;10.45;;;;;;;;;;5092176;28;20026;-72
2021/03/19 04:48:44;;;;;;;18.55;9.90;;;;;;;;;;5092209;28;20024;-72
2021/03/19 04:51:10;;;;;;;18.40;9.52;;;;;;;;;;5091730;28;20492;-72
2021/03/19 04:53:36;;;;;;;14.95;8.70;;;;;;;;;;5092002;28;20035;-72
2021/03/19 04:56:03;;;;;;;19.48;10.55;;;;;;;;;;5092347;28;20066;-72
2021/03/19 04:58:29;;;;;;;17.73;10.75;;;;;;;;;;5091819;28;20391;-73
2021/03/19 05:00:55;;;;;;;18.90;10.43;;;;;;;;;;5092100;28;20028;-73
2021/03/19 05:03:21;;;;;;;22.25;11.23;;;;;;;;;;5091632;28;20490;-72
2021/03/19 05:05:47;;;;;;;23.25;13.20;;;;;;;;;;5090744;28;20012;-72
2021/03/19 05:08:13;;;;;;;23.52;11.27;;;;;;;;;;5091969;28;20027;-73
2021/03/19 05:10:40;;;;;;;17.88;10.55;;;;;;;;;;5091632;28;20606;-73
2021/03/19 05:13:07;;;;;;;19.63;11.23;;;;;;;;;;5091726;28;20527;-73
2021/03/19 05:15:35;;;;;;;18.40;10.73;;;;;;;;;;5092260;28;20020;-73
2021/03/19 05:18:01;;;;;;;16.85;10.05;;;;;;;;;;5091658;28;20042;-74
2021/03/19 05:20:28;;;;;;;23.42;11.75;;;;;;;;;;5093582;28;20023;-73
2021/03/19 05:22:54;;;;;;;20.65;10.30;;;;;;;;;;5095605;28;20028;-72
2021/03/19 05:25:22;;;;;;;17.52;10.93;;;;;;;;;;5095095;28;20024;-73
2021/03/19 05:27:50;;;;;;;24.45;13.10;;;;;;;;;;5094203;28;20051;-72
2021/03/19 05:30:16;;;;;;;21.83;11.52;;;;;;;;;;5094177;28;20020;-73
2021/03/19 05:32:43;;;;;;;18.67;10.68;;;;;;;;;;5094839;28;20063;-73
2021/03/19 05:35:10;;;;;;;23.23;13.20;;;;;;;;;;5095549;28;20051;-73
2021/03/19 05:37:36;;;;;;;22.50;11.75;;;;;;;;;;5094099;28;20028;-74
2021/03/19 05:40:04;;;;;;;24.20;14.20;;;;;;;;;;5094915;28;20024;-75
2021/03/19 05:42:32;;;;;;;20.02;11.45;;;;;;;;;;5095287;28;20063;-75
2021/03/19 05:45:16;;;;;;;25.60;13.98;;;;;;;;;;5095148;28;20020;-73
2021/03/19 05:47:42;;;;;;;23.73;13.68;;;;;;;;;;5094790;28;20123;-73
2021/03/19 05:50:20;;;;;;;20.85;12.43;;;;;;;;;;5095117;28;20376;-75
2021/03/19 05:52:46;;;;;;;26.27;13.95;;;;;;;;;;5094619;28;20036;-75
2021/03/19 05:55:15;;;;;;;19.80;12.27;;;;;;;;;;5095066;28;20020;-74
2021/03/19 05:57:41;;;;;;;19.73;12.45;;;;;;;;;;5095160;28;20388;-73
2021/03/19 06:00:15;;;;;;;19.13;12.05;;;;;;;;;;5094457;28;20043;-74
2021/03/19 06:02:41;;;;;;;24.77;13.10;;;;;;;;;;5094861;28;20031;-73
2021/03/19 06:05:10;;;;;;;23.38;13.82;;;;;;;;;;5094967;28;20032;-74
2021/03/19 06:07:37;;;;;;;25.08;15.63;;;;;;;;;;5094177;28;20024;-75
2021/03/19 06:10:20;;;;;;;29.40;17.30;;;;;;;;;;5094779;28;20028;-75
2021/03/19 06:12:56;;;;;;;31.23;20.08;;;;;;;;;;5094402;28;20139;-73
2021/03/19 06:15:36;;;;;;;22.60;14.63;;;;;;;;;;5092934;28;20475;-73
2021/03/19 06:18:04;;;;;;;15.95;10.90;;;;;;;;;;5094541;28;20438;-70
2021/03/19 06:20:31;;;;;;;26.73;16.10;;;;;;;;;;5094394;28;20024;-71
2021/03/19 06:23:00;;;;;;;20.38;11.00;;;;;;;;;;5092725;28;20435;-73
2021/03/19 06:25:43;;;;;;;16.42;10.60;;;;;;;;;;5092188;28;20024;-73
2021/03/19 06:28:15;;;;;;;18.40;11.00;;;;;;;;;;5093739;28;20016;-72
2021/03/19 06:30:43;;;;;;;23.45;13.25;;;;;;;;;;5093723;28;20265;-71
2021/03/19 06:33:12;;;;;;;17.58;11.57;;;;;;;;;;5091114;28;20028;-68
2021/03/19 06:35:39;;;;;;;23.13;13.80;;;;;;;;;;5091247;28;20032;-68
2021/03/19 06:38:24;;;;;;;26.17;15.35;;;;;;;;;;5093334;28;20035;-72
2021/03/19 06:40:50;;;;;;;19.85;13.15;;;;;;;;;;5093285;28;20028;-74
2021/03/19 06:43:29;;;;;;;20.85;12.70;;;;;;;;;;5091796;28;20024;-71
2021/03/19 06:46:11;;;;;;;24.02;15.00;;;;;;;;;;5072327;28;20029;-78
2021/03/19 06:48:41;;;;;;;28.33;16.77;;;;;;;;;;5080997;28;20020;-73
2021/03/19 06:51:23;;;;;;;20.85;13.80;;;;;;;;;;5108273;28;20028;-76
2021/03/19 06:53:58;;;;;;;30.08;17.58;;;;;;;;;;5111790;28;20108;-75
2021/03/19 06:56:25;;;;;;;29.95;16.95;;;;;;;;;;5107813;28;20047;-76
2021/03/19 06:58:51;;;;;;;29.83;15.88;;;;;;;;;;5096247;28;20030;-76
2021/03/19 07:01:23;;;;;;;23.17;13.20;;;;;;;;;;5112746;28;20094;-74
2021/03/19 07:04:08;;;;;;;21.02;12.88;;;;;;;;;;5112592;28;20072;-75
2021/03/19 07:06:37;;;;;;;23.63;13.35;;;;;;;;;;5113299;28;20020;-77
2021/03/19 07:09:42;;;;;;;18.92;11.55;;;;;;;;;;5112043;28;20047;-73
2021/03/19 07:12:14;;;;;;;20.55;12.00;;;;;;;;;;5044853;28;20053;-76
2021/03/19 07:14:55;;;;;;;24.73;15.32;;;;;;;;;;5029663;28;20128;-75
2021/03/19 07:17:24;;;;;;;26.63;13.40;;;;;;;;;;5071721;28;20048;-68
2021/03/19 07:20:14;;;;;;;20.60;12.18;;;;;;;;;;5094784;28;20059;-68
2021/03/19 07:22:58;;;;;;;21.98;13.35;;;;;;;;;;5076265;28;20043;-69
2021/03/19 07:25:37;;;;;;;24.92;13.80;;;;;;;;;;5081499;28;20104;-68
2021/03/19 07:28:26;;;;;;;21.13;11.35;;;;;;;;;;5095886;28;20027;-68
2021/03/19 07:31:05;;;;;;;21.75;11.77;;;;;;;;;;5099100;28;20115;-69
2021/03/19 07:33:31;;;;;;;21.95;12.75;;;;;;;;;;5095934;28;20160;-75
2021/03/19 07:36:12;;;;;;;21.63;11.88;;;;;;;;;;5090489;28;20028;-70
2021/03/19 07:38:38;;;;;;;20.65;12.57;;;;;;;;;;5087271;28;20451;-71
2021/03/19 07:41:25;;;;;;;15.23;9.07;;;;;;;;;;5090886;28;20046;-70
2021/03/19 07:44:26;;;;;;;25.33;14.63;;;;;;;;;;5091558;28;20069;-70
2021/03/19 07:46:55;;;;;;;22.10;12.40;;;;;;;;;;5026511;28;20030;-70
2021/03/19 07:49:32;;;;;;;25.75;12.73;;;;;;;;;;5088028;28;20040;-69
2021/03/19 07:52:08;;;;;;;19.80;9.35;;;;;;;;;;5109977;28;20514;-69
2021/03/19 07:54:46;;;;;;;22.45;10.95;;;;;;;;;;5086767;28;20066;-71
2021/03/19 07:57:15;;;;;;;21.40;12.27;;;;;;;;;;5091987;28;20039;-69
2021/03/19 07:59:47;;;;;;;21.48;10.05;;;;;;;;;;5087917;28;20023;-69
2021/03/19 08:02:13;;;;;;;24.67;13.27;;;;;;;;;;5088553;28;20027;-69
2021/03/19 08:04:57;;;;;;;19.13;10.15;;;;;;;;;;5092055;28;20016;-69
2021/03/19 08:07:29;;;;;;;17.40;11.18;;;;;;;;;;5091525;28;20027;-69
2021/03/19 08:09:55;;;;;;;14.93;8.60;;;;;;;;;;5091756;28;20035;-68
2021/03/19 08:12:54;;;;;;;10.50;6.22;;;;;;;;;;5091492;28;20101;-70
2021/03/19 08:15:39;;;;;;;20.38;10.15;;;;;;;;;;5062807;28;20032;-70
2021/03/19 08:18:17;;;;;;;12.73;8.35;;;;;;;;;;5091720;28;20031;-69
2021/03/19 08:20:43;;;;;;;17.40;9.70;;;;;;;;;;5110718;28;20541;-69
2021/03/19 08:23:48;;;;;;;23.35;13.43;;;;;;;;;;5110283;28;20028;-68
2021/03/19 08:26:19;;;;;;;20.42;12.68;;;;;;;;;;5048742;28;20032;-70
2021/03/19 08:29:08;;;;;;;14.25;8.82;;;;;;;;;;5031744;28;20252;-69
2021/03/19 08:31:50;;;;;;;12.23;6.90;;;;;;;;;;5058623;28;20036;-72
2021/03/19 08:34:16;;;;;;;18.38;10.32;;;;;;;;;;5096908;28;20036;-70
2021/03/19 08:36:47;;;;;;;13.20;7.43;;;;;;;;;;5111823;28;20443;-70
2021/03/19 08:39:13;;;;;;;18.23;8.18;;;;;;;;;;5112124;28;20095;-69
2021/03/19 08:41:42;;;;;;;22.42;14.93;;;;;;;;;;5111471;28;20024;-69
2021/03/19 08:44:12;;;;;;;13.23;8.07;;;;;;;;;;5111866;28;20088;-69
2021/03/19 08:46:43;;;;;;;11.43;6.60;;;;;;;;;;5111944;28;20032;-69
2021/03/19 08:49:12;;;;;;;22.42;9.43;;;;;;;;;;5097077;28;20468;-69
2021/03/19 08:51:40;;;;;;;15.38;7.22;;;;;;;;;;5091036;28;20031;-70
2021/03/19 08:54:15;;;;;;;10.38;6.18;;;;;;;;;;5090709;28;20024;-68
2021/03/19 08:56:44;;;;;;;13.80;6.38;;;;;;;;;;5092643;28;20031;-70
2021/03/19 09:00:52;;;;;;;10.98;6.38;;;;;;;;;;5102120;27;20976;-69
2021/03/19 09:05:04;;;;;;;10.70;6.57;;;;;;;;;;5066951;28;20428;-68
2021/03/19 09:07:38;;;;;;;11.48;6.47;;;;;;;;;;5066804;28;20067;-68
2021/03/19 09:11:00;;;;;;;12.82;7.57;;;;;;;;;;5107277;27;20385;-68
2021/03/19 09:13:26;;;;;;;8.48;5.43;;;;;;;;;;5107186;28;20027;-68
2021/03/19 09:17:07;;;;;;;11.05;5.57;;;;;;;;;;5067340;28;20733;-69
2021/03/19 09:21:01;;;;;;;13.02;6.25;;;;;;;;;;5109164;27;20389;-70
2021/03/19 09:23:47;;;;;;;13.27;7.05;;;;;;;;;;5107932;28;20034;-69
2021/03/19 09:26:30;;;;;;;13.40;8.07;;;;;;;;;;5109549;28;20549;-69
2021/03/19 09:28:58;;;;;;;9.20;4.95;;;;;;;;;;5109602;28;20094;-70
2021/03/19 09:31:28;;;;;;;19.27;9.60;;;;;;;;;;5109118;28;20019;-69
2021/03/19 09:33:56;;;;;;;16.08;8.68;;;;;;;;;;5098097;28;20039;-68
2021/03/19 09:36:40;;;;;;;14.85;8.57;;;;;;;;;;5088943;28;20183;-69
2021/03/19 09:39:07;;;;;;;12.02;7.18;;;;;;;;;;5089498;28;20119;-68
2021/03/19 09:41:50;;;;;;;14.77;7.28;;;;;;;;;;5088917;28;20031;-69
2021/03/19 09:44:16;;;;;;;;;;;;;;;;;;5088184;28;20600;-70
2021/03/19 09:46:42;;;;;;;10.27;6.05;;;;;;;;;;5088441;28;19940;-68
2021/03/19 09:49:34;;;;;;;10.38;6.05;;;;;;;;;;5109701;27;20430;-68
2021/03/19 09:52:11;;;;;;;12.43;6.35;;;;;;;;;;5124699;28;20047;-68
2021/03/19 09:54:38;;;;;;;9.88;5.25;;;;;;;;;;5129949;28;20073;-70
2021/03/19 09:57:13;;;;;;;11.68;6.38;;;;;;;;;;5130079;28;20030;-72
2021/03/19 09:59:41;;;;;;;16.42;9.38;;;;;;;;;;5105504;28;20054;-74
2021/03/19 10:02:26;;;;;;;24.98;13.95;;;;;;;;;;5115021;28;20050;-72
2021/03/19 10:04:53;;;;;;;20.20;12.00;;;;;;;;;;5129222;27;20027;-73
2021/03/19 10:07:20;;;;;;;34.38;17.85;;;;;;;;;;5128208;28;20023;-72
2021/03/19 10:11:48;;;;;;;11.13;6.80;;;;;;;;;;5105921;27;20793;-73
2021/03/19 10:14:19;;;;;;;12.45;7.07;;;;;;;;;;5095537;28;20042;-71
2021/03/19 10:16:46;;;;;;;12.05;7.45;;;;;;;;;;5090722;28;20021;-70
2021/03/19 10:19:34;;;;;;;21.35;12.88;;;;;;;;;;5106392;27;20544;-70
2021/03/19 10:22:00;;;;;;;12.13;8.13;;;;;;;;;;5106866;28;20383;-71
2021/03/19 10:24:28;;;;;;;13.27;6.93;;;;;;;;;;5125600;28;20068;-71
2021/03/19 10:27:04;;;;;;;8.35;5.00;;;;;;;;;;5126146;28;20023;-72
2021/03/19 10:29:37;;;;;;;8.75;5.50;;;;;;;;;;5115534;28;20020;-73
2021/03/19 10:32:09;;;;;;;9.80;4.45;;;;;;;;;;5093530;28;20107;-71
2021/03/19 10:36:40;;;;;;;10.77;5.60;;;;;;;;;;5109350;27;20892;-71
2021/03/19 10:39:24;;;;;;;8.18;4.72;;;;;;;;;;5110041;28;20050;-71
2021/03/19 10:41:54;;;;;;;12.95;7.38;;;;;;;;;;5109467;28;20498;-72
2021/03/19 10:44:23;;;;;;;16.83;10.25;;;;;;;;;;5109751;28;20028;-73
2021/03/19 10:47:08;;;;;;;31.85;18.67;;;;;;;;;;5109595;28;20095;-72
2021/03/19 10:49:58;;;;;;;15.18;10.45;;;;;;;;;;5068002;28;20396;-73
2021/03/19 10:52:30;;;;;;;12.10;6.68;;;;;;;;;;5068765;28;20032;-73
2021/03/19 10:54:59;;;;;;;10.30;6.07;;;;;;;;;;5065625;28;20056;-73
2021/03/19 10:58:32;;;;;;;10.07;5.22;;;;;;;;;;5069022;28;20395;-75
2021/03/19 11:03:45;;;;;;;9.48;5.35;;;;;;;;;;5109633;27;20430;-70
2021/03/19 11:07:49;;;;;;;8.68;4.57;;;;;;;;;;5109758;27;20357;-68
2021/03/19 11:10:18;;;;;;;9.48;5.65;;;;;;;;;;5109691;28;20037;-72
2021/03/19 11:12:46;;;;;;;14.35;8.32;;;;;;;;;;5109582;28;20065;-66
2021/03/19 11:15:19;;;;;;;14.50;8.38;;;;;;;;;;5109553;28;20016;-69
2021/03/19 11:18:42;;;;;;;12.32;6.95;;;;;;;;;;5171650;27;20160;-70
2021/03/19 11:22:46;;;;;;;10.23;5.55;;;;;;;;;;5130217;27;20112;-67
2021/03/19 11:29:16;;;;;;;13.43;7.53;;;;;;;;;;5102566;27;20389;-70
2021/03/19 11:31:56;;;;;;;15.18;9.80;;;;;;;;;;5109485;28;20049;-70
2021/03/19 11:35:18;;;;;;;13.75;7.65;;;;;;;;;;5096037;27;20382;-70
2021/03/19 11:44:53;;;;;;;9.38;5.82;;;;;;;;;;5107864;27;20385;-78
2021/03/19 11:47:25;;;;;;;8.80;4.63;;;;;;;;;;5107801;28;20477;-77
2021/03/19 11:49:53;;;;;;;11.32;6.32;;;;;;;;;;5107600;28;20016;-77
2021/03/19 11:52:20;;;;;;;9.95;6.43;;;;;;;;;;5108858;28;20073;-78
2021/03/19 11:56:13;;;;;;;11.27;5.43;;;;;;;;;;5109543;27;20442;-77
2021/03/19 11:58:40;;;;;;;8.13;4.93;;;;;;;;;;5103561;28;20073;-76
2021/03/19 12:01:07;;;;;;;12.90;6.65;;;;;;;;;;5129941;28;20045;-76
2021/03/19 12:03:35;;;;;;;11.60;6.35;;;;;;;;;;5114093;28;20020;-76
2021/03/19 12:06:02;;;;;;;10.45;5.95;;;;;;;;;;5129497;28;20023;-76
2021/03/19 12:10:09;;;;;;;9.07;4.65;;;;;;;;;;5109669;27;20934;-69
2021/03/19 12:12:35;;;;;;;7.20;3.97;;;;;;;;;;5107756;28;20039;-69
2021/03/19 12:15:02;;;;;;;7.35;3.10;;;;;;;;;;5108579;28;20384;-68
2021/03/19 12:17:28;;;;;;;8.82;4.85;;;;;;;;;;5109254;28;20020;-68
2021/03/19 12:19:54;;;;;;;16.30;9.70;;;;;;;;;;5109293;28;20028;-68
2021/03/19 12:22:20;;;;;;;10.15;5.50;;;;;;;;;;5109958;28;20510;-69
2021/03/19 12:24:47;;;;;;;9.60;5.50;;;;;;;;;;5108605;28;20103;-68
2021/03/19 12:27:14;;;;;;;9.75;6.20;;;;;;;;;;5100296;28;20368;-68
2021/03/19 12:29:41;;;;;;;8.38;4.43;;;;;;;;;;5114518;28;20109;-69
2021/03/19 12:32:07;;;;;;;6.47;3.85;;;;;;;;;;5112271;28;20020;-67
2021/03/19 12:34:34;;;;;;;6.40;3.35;;;;;;;;;;5106286;28;20020;-68
2021/03/19 12:37:00;;;;;;;9.98;5.82;;;;;;;;;;5106678;28;20051;-68
2021/03/19 12:39:27;;;;;;;8.40;4.18;;;;;;;;;;5109310;28;20020;-69
2021/03/19 12:41:53;;;;;;;8.73;4.63;;;;;;;;;;5107761;28;20093;-69
2021/03/19 12:44:20;;;;;;;6.65;3.88;;;;;;;;;;5087233;28;20029;-67
2021/03/19 12:46:46;;;;;;;8.43;4.93;;;;;;;;;;5098732;28;20020;-71
2021/03/19 12:49:13;;;;;;;7.15;4.18;;;;;;;;;;5107968;28;20444;-67
2021/03/19 12:51:39;;;;;;;7.50;3.70;;;;;;;;;;5108094;28;20063;-66
2021/03/19 12:54:05;;;;;;;6.68;3.50;;;;;;;;;;5109244;28;20028;-67
2021/03/19 12:56:32;;;;;;;6.43;3.65;;;;;;;;;;5107524;28;20020;-67
2021/03/19 12:58:58;;;;;;;6.10;3.67;;;;;;;;;;5106723;28;20027;-66
2021/03/19 13:02:10;;;;;;;11.30;5.97;;;;;;;;;;5067650;28;20433;-67
2021/03/19 13:04:36;;;;;;;11.30;6.63;;;;;;;;;;5066505;28;20071;-67
2021/03/19 13:07:07;;;;;;;13.02;6.18;;;;;;;;;;5065242;28;20033;-70
2021/03/19 13:09:44;;;;;;;12.02;6.63;;;;;;;;;;5066741;28;20895;-68
2021/03/19 13:12:10;;;;;;;8.38;4.95;;;;;;;;;;5068782;28;20079;-68
2021/03/19 13:14:36;;;;;;;6.93;3.63;;;;;;;;;;5059323;28;20497;-69
2021/03/19 13:17:03;;;;;;;6.75;2.85;;;;;;;;;;5067223;28;20116;-69
2021/03/19 13:19:30;;;;;;;6.82;3.30;;;;;;;;;;5066740;28;20076;-68
2021/03/19 13:21:56;;;;;;;6.45;3.92;;;;;;;;;;5068972;28;20029;-67
2021/03/19 13:24:23;;;;;;;35.78;22.02;;;;;;;;;;5068929;28;20012;-67
2021/03/19 13:26:50;;;;;;;15.80;9.40;;;;;;;;;;5067938;28;20059;-67
2021/03/19 13:29:16;;;;;;;9.25;4.72;;;;;;;;;;5069012;28;20029;-68
2021/03/19 13:31:43;;;;;;;8.85;4.47;;;;;;;;;;5068584;28;20021;-68
2021/03/19 13:34:10;;;;;;;11.02;5.03;;;;;;;;;;5067819;28;20028;-68
2021/03/19 13:36:36;;;;;;;7.85;4.22;;;;;;;;;;5069104;28;20366;-68
2021/03/19 13:39:04;;;;;;;10.40;5.38;;;;;;;;;;5068947;28;20032;-68
2021/03/19 13:41:31;;;;;;;10.75;5.78;;;;;;;;;;5068053;28;20028;-69
2021/03/19 13:43:58;;;;;;;10.65;6.10;;;;;;;;;;5067414;28;20021;-69
2021/03/19 13:46:24;;;;;;;9.55;4.43;;;;;;;;;;5068987;28;20507;-68
2021/03/19 13:48:51;;;;;;;8.98;4.75;;;;;;;;;;5067553;28;20036;-69
2021/03/19 13:51:17;;;;;;;10.15;5.50;;;;;;;;;;5068557;28;20028;-69
2021/03/19 13:53:43;;;;;;;10.45;7.25;;;;;;;;;;5066680;28;20032;-69
2021/03/19 13:56:10;;;;;;;16.25;9.98;;;;;;;;;;5064236;28;20028;-68
2021/03/19 13:58:37;;;;;;;12.82;7.45;;;;;;;;;;5066817;28;20032;-68
2021/03/19 14:01:05;;;;;;;9.40;5.22;;;;;;;;;;5068752;28;20091;-68
2021/03/19 14:03:31;;;;;;;8.35;4.38;;;;;;;;;;5068623;28;20191;-68
2021/03/19 14:05:58;;;;;;;7.80;3.75;;;;;;;;;;5068049;28;20025;-68
2021/03/19 14:09:18;;;;;;;7.53;4.03;;;;;;;;;;5069604;28;20410;-69
2021/03/19 14:11:44;;;;;;;7.93;4.57;;;;;;;;;;5069625;28;20028;-69
2021/03/19 14:14:10;;;;;;;9.93;5.03;;;;;;;;;;5067932;28;20115;-69
2021/03/19 14:16:37;;;;;;;9.32;4.57;;;;;;;;;;5069584;28;20109;-69
2021/03/19 14:19:04;;;;;;;6.93;4.22;;;;;;;;;;5069311;28;20417;-69
2021/03/19 14:21:31;;;;;;;7.43;3.88;;;;;;;;;;5069555;28;20017;-68
2021/03/19 14:23:57;;;;;;;6.82;3.78;;;;;;;;;;5069415;28;20071;-68
2021/03/19 14:26:23;;;;;;;9.07;4.20;;;;;;;;;;5068925;28;20088;-68
2021/03/19 14:28:50;;;;;;;11.60;7.07;;;;;;;;;;5069251;28;20064;-68
2021/03/19 14:31:18;;;;;;;13.85;8.15;;;;;;;;;;5069364;28;20477;-68
2021/03/19 14:34:37;;;;;;;13.23;7.88;;;;;;;;;;5109833;27;20434;-69
2021/03/19 14:37:03;;;;;;;11.13;7.13;;;;;;;;;;5110152;28;20472;-68
2021/03/19 14:40:58;;;;;;;13.50;7.22;;;;;;;;;;5068763;28;20352;-69
2021/03/19 14:43:26;;;;;;;8.65;4.70;;;;;;;;;;5069362;28;20033;-69
2021/03/19 14:45:53;;;;;;;7.07;3.70;;;;;;;;;;5069447;28;20025;-69
2021/03/19 14:48:24;;;;;;;8.65;5.28;;;;;;;;;;5067826;28;20033;-69
2021/03/19 14:50:50;;;;;;;9.10;5.25;;;;;;;;;;5069327;28;20548;-69
2021/03/19 14:54:53;;;;;;;6.22;3.42;;;;;;;;;;5109875;27;20377;-69
2021/03/19 14:57:19;;;;;;;9.10;3.63;;;;;;;;;;5110457;28;20540;-69
2021/03/19 14:59:45;;;;;;;8.13;4.30;;;;;;;;;;5109050;28;20024;-71
2021/03/19 15:02:11;;;;;;;8.18;5.15;;;;;;;;;;5109781;28;20027;-69
2021/03/19 15:04:37;;;;;;;9.57;4.65;;;;;;;;;;5108895;28;20392;-70
2021/03/19 15:08:10;;;;;;;8.85;5.50;;;;;;;;;;5069449;28;20923;-70
2021/03/19 15:12:15;;;;;;;11.20;7.20;;;;;;;;;;5110253;27;20438;-69
2021/03/19 15:14:53;;;;;;;16.77;10.65;;;;;;;;;;5130780;27;20323;-69
2021/03/19 15:17:19;;;;;;;16.17;10.10;;;;;;;;;;5109964;28;20024;-69
2021/03/19 15:19:45;;;;;;;14.43;8.82;;;;;;;;;;5110088;28;20379;-69
2021/03/19 15:23:27;;;;;;;18.67;11.32;;;;;;;;;;5109647;27;20438;-69
2021/03/19 15:27:43;;;;;;;18.23;10.85;;;;;;;;;;5110280;27;20430;-69
2021/03/19 15:31:31;;;;;;;17.67;11.25;;;;;;;;;;5109708;27;20442;-69
2021/03/19 15:37:35;;;;;;;33.28;20.00;;;;;;;;;;5029738;28;20452;-69